createdAt,value
2022-11-18T00:00:51.971Z,7.70
2022-11-18T00:05:09.145Z,7.70
2022-11-18T00:09:26.386Z,7.60
2022-11-18T00:14:02.404Z,7.70
2022-11-18T00:18:19.595Z,7.70
2022-11-18T00:22:36.788Z,7.80
2022-11-18T00:26:54.734Z,7.80
2022-11-18T00:31:14.085Z,7.80
2022-11-18T00:35:31.264Z,7.80
2022-11-18T00:39:48.424Z,7.70
2022-11-18T00:44:09.497Z,7.70
2022-11-18T00:48:27.607Z,7.90
2022-11-18T00:52:44.783Z,7.70
2022-11-18T00:57:02.037Z,7.70
2022-11-18T01:01:19.381Z,7.70
2022-11-18T01:05:37.996Z,7.70
2022-11-18T01:09:55.863Z,7.70
2022-11-18T01:14:13.069Z,7.60
2022-11-18T01:18:31.224Z,7.70
2022-11-18T01:22:48.423Z,7.70
2022-11-18T01:27:05.819Z,7.80
2022-11-18T01:31:23.435Z,7.70
2022-11-18T01:35:43.532Z,7.70
2022-11-18T01:40:00.686Z,7.70
2022-11-18T01:44:55.201Z,7.70
2022-11-18T01:49:14.642Z,7.80
2022-11-18T01:53:54.066Z,7.70
2022-11-18T01:58:15.955Z,7.80
2022-11-18T02:02:35.789Z,7.80
2022-11-18T02:06:54.826Z,7.80
2022-11-18T02:11:33.847Z,7.80
2022-11-18T02:16:06.872Z,7.80
2022-11-18T02:20:31.072Z,7.70
2022-11-18T02:24:56.825Z,7.70
2022-11-18T02:29:19.588Z,7.70
2022-11-18T02:33:45.461Z,7.60
2022-11-18T02:38:08.956Z,7.80
2022-11-18T02:42:27.549Z,7.80
2022-11-18T02:46:49.794Z,7.80
2022-11-18T02:51:09.652Z,7.70
2022-11-18T02:55:30.759Z,7.80
2022-11-18T02:59:48.478Z,7.80
2022-11-18T03:04:05.679Z,7.90
2022-11-18T03:08:29.235Z,7.90
2022-11-18T03:13:11.642Z,7.90
2022-11-18T03:18:14.092Z,7.90
2022-11-18T03:22:55.705Z,8.00
2022-11-18T03:27:22.078Z,7.90
2022-11-18T03:31:57.733Z,7.90
2022-11-18T03:36:18.482Z,7.90
2022-11-18T03:40:39.412Z,7.90
2022-11-18T03:45:20.141Z,7.90
2022-11-18T03:49:54.073Z,7.90
2022-11-18T03:54:20.475Z,7.80
2022-11-18T03:58:48.920Z,7.80
2022-11-18T04:03:06.327Z,7.80
2022-11-18T04:07:36.346Z,7.80
2022-11-18T04:12:03.599Z,7.80
2022-11-18T04:16:21.118Z,7.80
2022-11-18T04:20:38.499Z,7.80
2022-11-18T04:24:55.721Z,7.80
2022-11-18T04:29:13.007Z,7.80
2022-11-18T04:33:30.202Z,7.70
2022-11-18T04:37:47.383Z,7.60
2022-11-18T04:42:04.718Z,7.60
2022-11-18T04:46:22.100Z,7.60
2022-11-18T04:50:39.269Z,7.60
2022-11-18T04:54:56.570Z,7.60
2022-11-18T04:59:15.412Z,7.50
2022-11-18T05:03:33.227Z,7.40
2022-11-18T05:07:51.262Z,7.30
2022-11-18T05:12:33.747Z,7.40
2022-11-18T05:16:50.931Z,7.50
2022-11-18T05:21:08.309Z,7.50
2022-11-18T05:25:25.530Z,7.50
2022-11-18T05:29:42.995Z,7.50
2022-11-18T05:34:00.257Z,7.50
2022-11-18T05:38:17.607Z,7.60
2022-11-18T05:42:53.601Z,7.50
2022-11-18T05:47:11.226Z,7.60
2022-11-18T05:51:28.411Z,7.60
2022-11-18T05:56:00.331Z,7.60
2022-11-18T06:00:18.189Z,7.60
2022-11-18T06:04:40.792Z,7.60
2022-11-18T06:09:03.704Z,7.50
2022-11-18T06:13:25.931Z,7.60
2022-11-18T06:17:48.404Z,7.60
2022-11-18T06:22:06.375Z,7.70
2022-11-18T06:26:23.617Z,7.70
2022-11-18T06:30:40.979Z,7.60
2022-11-18T06:34:58.219Z,7.40
2022-11-18T06:39:15.797Z,7.30
2022-11-18T06:43:38.983Z,7.20
2022-11-18T06:48:00.946Z,7.20
2022-11-18T06:52:18.193Z,7.10
2022-11-18T06:56:36.250Z,7.10
2022-11-18T07:00:53.480Z,7.10
2022-11-18T07:05:10.746Z,6.90
2022-11-18T07:09:27.913Z,6.80
2022-11-18T07:13:45.826Z,6.70
2022-11-18T07:18:03.088Z,6.70
2022-11-18T07:22:20.300Z,6.50
2022-11-18T07:26:37.637Z,6.40
2022-11-18T07:31:02.448Z,6.30
2022-11-18T07:35:19.676Z,6.20
2022-11-18T07:39:36.839Z,6.20
2022-11-18T07:44:00.211Z,6.20
2022-11-18T07:48:17.851Z,6.00
2022-11-18T07:52:35.033Z,6.00
2022-11-18T07:56:52.231Z,5.70
2022-11-18T08:01:10.521Z,5.70
2022-11-18T08:05:27.865Z,5.80
2022-11-18T08:09:45.060Z,5.70
2022-11-18T08:14:02.393Z,5.60
2022-11-18T08:18:19.942Z,5.70
2022-11-18T08:22:37.148Z,5.50
2022-11-18T08:26:54.369Z,5.40
2022-11-18T08:31:13.578Z,5.20
2022-11-18T08:35:32.553Z,5.10
2022-11-18T08:39:49.748Z,5.10
2022-11-18T08:44:08.056Z,5.10
2022-11-18T08:48:25.252Z,5.00
2022-11-18T08:52:42.473Z,5.00
2022-11-18T08:56:59.733Z,4.90
2022-11-18T09:01:17.643Z,4.80
2022-11-18T09:05:34.899Z,4.70
2022-11-18T09:09:52.126Z,4.70
2022-11-18T09:18:51.130Z,4.60
2022-11-18T09:23:08.543Z,4.70
2022-11-18T09:27:25.795Z,4.70
2022-11-18T09:31:43.119Z,4.40
2022-11-18T09:36:00.950Z,4.40
2022-11-18T09:40:18.817Z,4.40
2022-11-18T09:45:11.714Z,4.40
2022-11-18T09:49:33.859Z,4.20
2022-11-18T09:53:51.196Z,4.10
2022-11-18T09:58:37.498Z,4.00
2022-11-18T10:03:04.854Z,3.90
2022-11-18T10:08:05.380Z,4.10
2022-11-18T10:12:41.691Z,4.10
2022-11-18T10:17:14.243Z,4.10
2022-11-18T10:21:54.793Z,4.00
2022-11-18T10:26:12.939Z,4.10
2022-11-18T10:30:31.307Z,4.00
2022-11-18T10:34:57.300Z,3.90
2022-11-18T10:39:16.509Z,3.80
2022-11-18T10:43:56.061Z,3.70
2022-11-18T10:48:16.039Z,3.70
2022-11-18T10:52:45.586Z,3.70
2022-11-18T10:57:19.689Z,3.80
2022-11-18T11:01:37.106Z,3.80
2022-11-18T11:06:24.038Z,3.60
2022-11-18T11:10:41.342Z,3.50
2022-11-18T11:15:05.257Z,3.30
2022-11-18T11:19:27.867Z,3.20
2022-11-18T11:23:46.292Z,3.20
2022-11-18T11:28:16.605Z,3.20
2022-11-18T11:32:59.801Z,3.20
2022-11-18T11:37:37.131Z,3.00
2022-11-18T11:42:10.868Z,2.90
2022-11-18T11:46:45.164Z,2.90
2022-11-18T11:51:36.988Z,3.00
2022-11-18T11:56:22.905Z,3.10
2022-11-18T12:00:57.680Z,2.90
2022-11-18T12:05:22.181Z,2.80
2022-11-18T12:10:03.885Z,2.50
2022-11-18T12:14:45.754Z,2.50
2022-11-18T12:19:13.556Z,2.30
2022-11-18T12:23:33.034Z,2.00
2022-11-18T12:27:52.787Z,1.80
2022-11-18T12:32:35.333Z,1.70
2022-11-18T12:36:54.460Z,1.60
2022-11-18T12:41:59.087Z,1.50
2022-11-18T12:46:34.892Z,1.50
2022-11-18T12:50:54.510Z,1.50
2022-11-18T12:55:22.311Z,1.50
2022-11-18T12:59:39.602Z,1.50
2022-11-18T13:04:22.319Z,1.50
2022-11-18T13:08:41.188Z,1.50
2022-11-18T13:12:59.404Z,1.60
2022-11-18T13:17:50.175Z,1.60
2022-11-18T13:22:36.284Z,1.60
2022-11-18T13:26:59.087Z,1.60
2022-11-18T13:31:26.275Z,1.70
2022-11-18T13:35:43.491Z,1.60
2022-11-18T13:40:01.281Z,1.60
2022-11-18T13:44:21.715Z,1.50
2022-11-18T13:48:43.598Z,1.40
2022-11-18T13:53:27.060Z,1.40
2022-11-18T13:57:48.586Z,1.40
2022-11-18T14:02:12.253Z,1.30
2022-11-18T14:06:30.800Z,1.30
2022-11-18T14:10:48.016Z,1.30
2022-11-18T14:15:22.712Z,1.20
2022-11-18T14:19:40.956Z,1.20
2022-11-18T14:23:59.047Z,1.20
2022-11-18T14:28:20.820Z,1.30
2022-11-18T14:32:38.074Z,1.20
2022-11-18T14:36:56.098Z,1.30
2022-11-18T14:41:15.821Z,1.30
2022-11-18T14:45:33.106Z,1.20
2022-11-18T14:49:50.394Z,1.20
2022-11-18T14:54:11.489Z,1.00
2022-11-18T14:58:28.849Z,1.00
2022-11-18T15:02:46.172Z,0.90
2022-11-18T15:07:03.464Z,0.90
2022-11-18T15:11:21.070Z,0.80
2022-11-18T15:15:38.352Z,0.80
2022-11-18T15:19:55.596Z,0.80
2022-11-18T15:24:12.996Z,0.90
2022-11-18T15:28:30.214Z,0.80
2022-11-18T15:32:47.468Z,0.80
2022-11-18T15:37:04.779Z,0.80
2022-11-18T15:41:25.243Z,0.70
2022-11-18T15:45:42.477Z,0.80
2022-11-18T15:49:59.755Z,0.60
2022-11-18T15:54:17.284Z,0.40
2022-11-18T15:58:36.200Z,0.50
2022-11-18T16:02:53.533Z,0.30
2022-11-18T16:07:10.868Z,0.30
2022-11-18T16:11:48.057Z,0.40
2022-11-18T16:16:05.485Z,0.30
2022-11-18T16:20:22.674Z,0.30
2022-11-18T16:24:44.158Z,0.20
2022-11-18T16:29:06.191Z,0.20
2022-11-18T16:33:23.403Z,0.10
2022-11-18T16:37:40.647Z,0.20
2022-11-18T16:42:07.423Z,0.10
2022-11-18T16:46:27.038Z,0.00
2022-11-18T16:50:44.230Z,-0.10
2022-11-18T16:55:01.535Z,-0.10
2022-11-18T16:59:26.872Z,-0.10
2022-11-18T17:03:44.232Z,-0.20
2022-11-18T17:08:02.163Z,-0.10
2022-11-18T17:12:19.420Z,-0.10
2022-11-18T17:16:36.749Z,-0.10
2022-11-18T17:20:53.895Z,-0.10
2022-11-18T17:25:11.155Z,-0.10
2022-11-18T17:29:29.077Z,-0.10
2022-11-18T17:33:47.319Z,-0.10
2022-11-18T17:38:04.422Z,-0.20
2022-11-18T17:42:25.620Z,-0.20
2022-11-18T17:46:43.420Z,-0.20
2022-11-18T17:51:06.866Z,-0.20
2022-11-18T17:55:24.075Z,-0.30
2022-11-18T17:59:41.315Z,-0.30
2022-11-18T18:03:58.619Z,-0.30
2022-11-18T18:08:15.797Z,-0.20
2022-11-18T18:12:53.041Z,-0.40
2022-11-18T18:17:10.874Z,-0.30
2022-11-18T18:21:28.806Z,-0.20
2022-11-18T18:25:46.032Z,-0.20
2022-11-18T18:30:03.484Z,-0.20
2022-11-18T18:34:21.509Z,-0.20
2022-11-18T18:38:39.434Z,-0.20
2022-11-18T18:42:56.568Z,-0.30
2022-11-18T18:47:13.865Z,-0.30
2022-11-18T18:51:39.982Z,-0.30
2022-11-18T18:55:57.237Z,-0.30
2022-11-18T19:00:15.159Z,-0.30
2022-11-18T19:04:32.400Z,-0.20
2022-11-18T19:08:49.680Z,-0.20
2022-11-18T19:13:07.125Z,-0.30
2022-11-18T19:17:24.449Z,-0.50
2022-11-18T19:21:41.976Z,-0.50
2022-11-18T19:26:02.416Z,-0.30
2022-11-18T19:30:19.768Z,-0.30
2022-11-18T19:34:37.022Z,-0.30
2022-11-18T19:38:54.200Z,-0.30
2022-11-18T19:43:11.751Z,-0.30
2022-11-18T19:47:29.168Z,-0.30
2022-11-18T19:51:46.380Z,-0.30
2022-11-18T19:56:06.708Z,-0.30
2022-11-18T20:00:23.932Z,-0.50
2022-11-18T20:05:01.257Z,-0.40
2022-11-18T20:09:18.831Z,-0.40
2022-11-18T20:13:37.201Z,-0.40
2022-11-18T20:17:54.344Z,-0.40
2022-11-18T20:22:11.626Z,-0.40
2022-11-18T20:26:32.166Z,-0.40
2022-11-18T20:30:54.470Z,-0.40
2022-11-18T20:35:13.201Z,-0.30
2022-11-18T20:39:30.450Z,-0.50
2022-11-18T20:43:48.330Z,-0.50
2022-11-18T20:48:05.917Z,-0.60
2022-11-18T20:52:23.707Z,-0.50
2022-11-18T20:56:40.978Z,-0.50
2022-11-18T21:01:01.770Z,-0.50
2022-11-18T21:05:19.229Z,-0.50
2022-11-18T21:09:36.691Z,-0.60
2022-11-18T21:14:12.581Z,-0.60
2022-11-18T21:18:29.870Z,-0.80
2022-11-18T21:22:47.111Z,-0.70
2022-11-18T21:27:04.899Z,-0.80
2022-11-18T21:31:23.565Z,-0.80
2022-11-18T21:35:40.796Z,-0.80
2022-11-18T21:39:57.975Z,-0.80
2022-11-18T21:44:15.348Z,-0.90
2022-11-18T21:48:32.838Z,-0.90
2022-11-18T21:52:50.538Z,-0.90
2022-11-18T21:57:07.748Z,-1.00
2022-11-18T22:01:27.684Z,-1.00
2022-11-18T22:05:44.903Z,-1.10
2022-11-18T22:10:02.098Z,-1.10
2022-11-18T22:14:19.266Z,-1.10
2022-11-18T22:18:38.710Z,-1.10
2022-11-18T22:22:55.908Z,-1.20
2022-11-18T22:27:13.102Z,-1.30
2022-11-18T22:31:30.284Z,-1.30
2022-11-18T22:35:47.538Z,-1.30
2022-11-18T22:40:05.297Z,-1.30
2022-11-18T22:44:23.776Z,-1.40
2022-11-18T22:48:41.145Z,-1.40
2022-11-18T22:52:58.408Z,-1.50
2022-11-18T22:57:15.754Z,-1.50
2022-11-18T23:01:32.954Z,-1.40
2022-11-18T23:05:50.243Z,-1.40
2022-11-18T23:10:07.702Z,-1.50
2022-11-18T23:14:24.968Z,-1.40
2022-11-18T23:18:42.177Z,-1.40
2022-11-18T23:22:59.388Z,-1.40
2022-11-18T23:27:16.564Z,-1.40
2022-11-18T23:31:33.921Z,-1.50
2022-11-18T23:35:52.776Z,-1.50
2022-11-18T23:40:10.750Z,-1.40
2022-11-18T23:44:46.100Z,-1.50
2022-11-18T23:49:08.438Z,-1.50
2022-11-18T23:53:26.967Z,-1.60
2022-11-18T23:57:44.191Z,-1.50
